Schedule Details

Flight Number: ASXC46
Departure: Brussels Airport (EBBR) at 20:00
Arrival: Gdansk im. Lecha Walesy (EPGD) at 22:00

Weather Information
EBBR 180620Z 18007KT 5000 BR NSC M01/M02 Q1025 TEMPO 3500 BR
EPGD 180630Z 29002KT 8000 SCT041 M03/M04 Q1026

Schedule Frequency

Route Map